Time,TemperatureF,DewpointF,PressureIn,WindDirection,WindDirectionDegrees,WindSpeedMPH,WindSpeedGustMPH,Humidity,HourlyPrecipIn,Conditions,Clouds,dailyrainin,SoftwareType,DateUTC
2013-03-31 00:03:00,-999.0,-99.9,-100.00,SSW,196,1.0,2.0,-999,-99.99,,,-99.99,,2013-03-31 04:03:00,
2013-03-31 00:13:00,35.0,17.0,-100.00,SW,217,0.0,2.0,46,0.00,,,-99.99,,2013-03-31 04:13:00,
2013-03-31 00:23:00,35.0,19.0,-100.00,WSW,251,0.0,2.0,53,0.00,,,-99.99,,2013-03-31 04:23:00,
2013-03-31 00:33:00,35.0,21.0,-100.00,WSW,246,0.0,2.0,56,0.00,,,-99.99,,2013-03-31 04:33:00,
2013-03-31 00:42:00,34.0,22.0,-100.00,WSW,240,1.0,2.0,59,0.00,,,-99.99,,2013-03-31 04:42:00,
2013-03-31 00:52:00,34.0,24.0,-100.00,West,270,0.0,2.0,65,0.00,,,-99.99,,2013-03-31 04:52:00,
2013-03-31 01:02:00,34.0,23.0,-100.00,SW,234,0.0,1.0,65,0.00,,,-99.99,,2013-03-31 05:02:00,
2013-03-31 01:12:00,34.0,22.0,-100.00,SSW,208,0.0,1.0,63,0.00,,,-99.99,,2013-03-31 05:12:00,
2013-03-31 01:22:00,32.0,20.0,-100.00,SSE,158,0.0,1.0,61,0.00,,,-99.99,,2013-03-31 05:22:00,
2013-03-31 01:32:00,32.0,22.0,-100.00,SSE,151,0.0,0.0,66,0.00,,,-99.99,,2013-03-31 05:32:00,
2013-03-31 01:42:00,33.0,22.0,-100.00,SSW,206,0.0,1.0,65,0.00,,,-99.99,,2013-03-31 05:42:00,
2013-03-31 01:52:00,32.0,21.0,-100.00,South,189,1.0,2.0,64,-99.99,,,-99.99,,2013-03-31 05:52:00,
2013-03-31 02:02:00,32.0,21.0,-100.00,South,182,1.0,2.0,63,0.00,,,-99.99,,2013-03-31 06:02:00,
2013-03-31 02:12:00,31.0,21.0,-100.00,SSE,160,0.0,0.0,67,0.00,,,-99.99,,2013-03-31 06:12:00,
2013-03-31 02:22:00,31.0,21.0,-100.00,SE,128,0.0,1.0,64,0.00,,,-99.99,,2013-03-31 06:22:00,
2013-03-31 02:32:00,31.0,21.0,-100.00,SW,216,0.0,1.0,66,0.00,,,-99.99,,2013-03-31 06:32:00,
2013-03-31 02:42:00,31.0,22.0,-100.00,SW,232,0.0,1.0,69,0.00,,,-99.99,,2013-03-31 06:42:00,
2013-03-31 02:52:00,31.0,23.0,-100.00,SSW,206,0.0,0.0,72,0.00,,,-99.99,,2013-03-31 06:52:00,
2013-03-31 03:02:00,-999.0,-99.9,-100.00,West,281,0.0,1.0,-999,-99.99,,,-99.99,,2013-03-31 07:02:00,
2013-03-31 03:12:00,31.0,25.0,-100.00,NNW,332,1.0,4.0,79,0.00,,,-99.99,,2013-03-31 07:12:00,
2013-03-31 03:22:00,32.0,26.0,-100.00,NW,322,3.0,4.0,79,0.00,,,-99.99,,2013-03-31 07:22:00,
2013-03-31 03:33:00,32.0,27.0,-100.00,NW,319,3.0,4.0,81,0.00,,,-99.99,,2013-03-31 07:33:00,
2013-03-31 03:43:00,-999.0,-99.9,-100.00,WNW,299,2.0,4.0,-999,-99.99,,,-99.99,,2013-03-31 07:43:00,
2013-03-31 03:52:00,31.0,26.0,-100.00,WNW,294,2.0,4.0,83,0.00,,,-99.99,,2013-03-31 07:52:00,
2013-03-31 04:02:00,31.0,28.0,-100.00,NW,320,2.0,4.0,86,0.00,,,-99.99,,2013-03-31 08:02:00,
2013-03-31 04:13:00,-999.0,-99.9,-100.00,NW,311,2.0,4.0,-999,-99.99,,,-99.99,,2013-03-31 08:13:00,
2013-03-31 04:22:00,30.0,25.0,-100.00,WSW,258,0.0,1.0,82,0.00,,,-99.99,,2013-03-31 08:22:00,
2013-03-31 04:32:00,30.0,26.0,-100.00,WNW,282,1.0,3.0,84,0.00,,,-99.99,,2013-03-31 08:32:00,
2013-03-31 04:42:00,29.0,25.0,-100.00,NW,325,1.0,3.0,83,0.00,,,-99.99,,2013-03-31 08:42:00,
2013-03-31 04:52:00,29.0,25.0,-100.00,NE,47,0.0,0.0,84,0.00,,,-99.99,,2013-03-31 08:52:00,
2013-03-31 05:02:00,29.0,24.0,-100.00,SSW,198,0.0,1.0,83,0.00,,,-99.99,,2013-03-31 09:02:00,
2013-03-31 05:12:00,-999.0,-99.9,-100.00,SSE,164,0.0,1.0,-999,-99.99,,,-99.99,,2013-03-31 09:12:00,
2013-03-31 05:22:00,-999.0,-99.9,-100.00,WSW,248,0.0,1.0,-999,-99.99,,,-99.99,,2013-03-31 09:22:00,
2013-03-31 05:33:00,28.0,24.0,-100.00,SW,230,0.0,2.0,82,0.00,,,-99.99,,2013-03-31 09:33:00,
2013-03-31 05:42:00,29.0,25.0,-100.00,WSW,256,1.0,3.0,86,0.00,,,-99.99,,2013-03-31 09:42:00,
2013-03-31 05:53:00,29.0,25.0,-100.00,WSW,253,1.0,3.0,85,0.00,,,-99.99,,2013-03-31 09:53:00,
2013-03-31 06:03:00,29.0,24.0,-100.00,SW,232,1.0,2.0,83,0.00,,,-99.99,,2013-03-31 10:03:00,
2013-03-31 06:13:00,28.0,24.0,-100.00,SW,223,1.0,2.0,82,0.00,,,-99.99,,2013-03-31 10:13:00,
2013-03-31 06:24:00,28.0,24.0,-100.00,SW,223,0.0,2.0,82,-99.99,,,-99.99,,2013-03-31 10:24:00,
2013-03-31 06:32:00,28.0,24.0,-100.00,WSW,256,1.0,2.0,84,0.00,,,-99.99,,2013-03-31 10:32:00,
2013-03-31 06:42:00,28.0,24.0,-100.00,West,267,0.0,1.0,84,0.00,,,-99.99,,2013-03-31 10:42:00,
2013-03-31 06:52:00,30.0,23.0,-100.00,NW,313,2.0,3.0,74,0.00,,,-99.99,,2013-03-31 10:52:00,
2013-03-31 07:02:00,30.0,23.0,-100.00,NW,316,2.0,4.0,74,0.00,,,-99.99,,2013-03-31 11:02:00,
2013-03-31 07:12:00,30.0,23.0,-100.00,NW,312,1.0,2.0,74,0.00,,,-99.99,,2013-03-31 11:12:00,
2013-03-31 07:23:00,30.0,23.0,-100.00,NW,305,1.0,2.0,75,0.00,,,-99.99,,2013-03-31 11:23:00,
2013-03-31 07:32:00,31.0,25.0,-100.00,SW,230,0.0,2.0,79,0.00,,,-99.99,,2013-03-31 11:32:00,
2013-03-31 07:43:00,-999.0,-99.9,-100.00,NW,306,1.0,2.0,-999,-99.99,,,-99.99,,2013-03-31 11:43:00,
2013-03-31 07:53:00,-999.0,-99.9,-100.00,WNW,284,1.0,4.0,-999,-99.99,,,-99.99,,2013-03-31 11:53:00,
2013-03-31 08:03:00,33.0,22.0,-100.00,West,272,1.0,4.0,66,0.00,,,-99.99,,2013-03-31 12:03:00,
2013-03-31 08:12:00,33.0,23.0,-100.00,WNW,285,1.0,3.0,67,0.00,,,-99.99,,2013-03-31 12:12:00,
2013-03-31 08:22:00,33.0,23.0,-100.00,West,280,1.0,3.0,65,0.00,,,-99.99,,2013-03-31 12:22:00,
2013-03-31 08:33:00,34.0,23.0,-100.00,West,281,1.0,3.0,64,0.00,,,-99.99,,2013-03-31 12:33:00,
2013-03-31 08:42:00,34.0,24.0,-100.00,WNW,282,1.0,2.0,65,0.00,,,-99.99,,2013-03-31 12:42:00,
2013-03-31 08:53:00,-999.0,-99.9,-100.00,NNW,328,0.0,1.0,-999,-99.99,,,-99.99,,2013-03-31 12:53:00,
2013-03-31 09:02:00,-999.0,-99.9,-100.00,NW,315,0.0,2.0,-999,-99.99,,,-99.99,,2013-03-31 13:02:00,
2013-03-31 09:12:00,36.0,24.0,-100.00,NW,313,1.0,2.0,60,0.00,,,-99.99,,2013-03-31 13:12:00,
2013-03-31 09:22:00,37.0,25.0,-100.00,NW,316,0.0,1.0,60,0.00,,,-99.99,,2013-03-31 13:22:00,
2013-03-31 09:32:00,38.0,26.0,-100.00,NW,315,0.0,1.0,60,0.00,,,-99.99,,2013-03-31 13:32:00,
2013-03-31 09:42:00,39.0,26.0,-100.00,NW,322,1.0,2.0,58,0.00,,,-99.99,,2013-03-31 13:42:00,
2013-03-31 09:53:00,-999.0,-99.9,-100.00,NW,326,1.0,2.0,-999,-99.99,,,-99.99,,2013-03-31 13:53:00,
2013-03-31 10:02:00,41.0,26.0,-100.00,NW,322,1.0,2.0,55,0.00,,,-99.99,,2013-03-31 14:02:00,
2013-03-31 10:12:00,45.0,26.0,-100.00,NNE,23,1.0,4.0,46,0.00,,,-99.99,,2013-03-31 14:12:00,
2013-03-31 10:22:00,49.0,19.0,-100.00,ESE,106,3.0,7.0,31,0.00,,,-99.99,,2013-03-31 14:22:00,
2013-03-31 10:32:00,50.0,15.0,-100.00,SE,140,7.0,14.0,24,0.00,,,-99.99,,2013-03-31 14:32:00,
2013-03-31 10:43:00,-999.0,-99.9,-100.00,SE,140,6.0,11.0,-999,-99.99,,,-99.99,,2013-03-31 14:43:00,
2013-03-31 10:52:00,51.0,15.0,-100.00,SE,140,7.0,15.0,24,0.00,,,-99.99,,2013-03-31 14:52:00,
2013-03-31 11:03:00,51.0,16.0,-100.00,SE,140,7.0,15.0,25,0.00,,,-99.99,,2013-03-31 15:03:00,
2013-03-31 11:13:00,52.0,18.0,-100.00,SSE,150,6.0,11.0,26,0.00,,,-99.99,,2013-03-31 15:13:00,
2013-03-31 11:22:00,51.0,17.0,-100.00,SSE,152,7.0,12.0,26,0.00,,,-99.99,,2013-03-31 15:22:00,
2013-03-31 11:33:00,52.0,19.0,-100.00,SE,136,6.0,11.0,27,0.00,,,-99.99,,2013-03-31 15:33:00,
2013-03-31 11:43:00,52.0,20.0,-100.00,SE,131,6.0,12.0,28,-99.99,,,-99.99,,2013-03-31 15:43:00,
2013-03-31 11:53:00,51.0,20.0,-100.00,SE,128,6.0,12.0,29,0.00,,,-99.99,,2013-03-31 15:53:00,
2013-03-31 12:03:00,52.0,20.0,-100.00,SE,134,6.0,12.0,29,0.00,,,-99.99,,2013-03-31 16:03:00,
2013-03-31 12:14:00,-999.0,-99.9,-100.00,SE,126,6.0,10.0,-999,-99.99,,,-99.99,,2013-03-31 16:14:00,
2013-03-31 12:23:00,51.0,26.0,-100.00,ESE,114,4.0,7.0,37,0.00,,,-99.99,,2013-03-31 16:23:00,
2013-03-31 12:33:00,51.0,28.0,-100.00,East,86,6.0,12.0,41,0.00,,,-99.99,,2013-03-31 16:33:00,
2013-03-31 12:43:00,51.0,28.0,-100.00,East,90,5.0,12.0,42,0.00,,,-99.99,,2013-03-31 16:43:00,
2013-03-31 12:53:00,50.0,29.0,-100.00,East,85,6.0,11.0,43,0.00,,,-99.99,,2013-03-31 16:53:00,
2013-03-31 13:03:00,50.0,31.0,-100.00,East,83,6.0,9.0,47,0.00,,,-99.99,,2013-03-31 17:03:00,
2013-03-31 13:12:00,49.0,32.0,-100.00,East,79,6.0,11.0,50,0.00,,,-99.99,,2013-03-31 17:12:00,
2013-03-31 13:23:00,49.0,32.0,-100.00,East,79,6.0,11.0,51,0.00,,,-99.99,,2013-03-31 17:23:00,
2013-03-31 13:32:00,50.0,33.0,-100.00,East,79,6.0,12.0,52,0.00,,,-99.99,,2013-03-31 17:32:00,
2013-03-31 13:43:00,50.0,32.0,-100.00,East,96,4.0,10.0,50,0.00,,,-99.99,,2013-03-31 17:43:00,
2013-03-31 13:52:00,51.0,32.0,-100.00,East,99,4.0,9.0,49,0.00,,,-99.99,,2013-03-31 17:52:00,
2013-03-31 14:03:00,-999.0,-99.9,-100.00,East,92,6.0,12.0,-999,-99.99,,,-99.99,,2013-03-31 18:03:00,
2013-03-31 14:13:00,49.0,32.0,-100.00,East,93,6.0,11.0,52,0.00,,,-99.99,,2013-03-31 18:13:00,
2013-03-31 14:23:00,-999.0,-99.9,-100.00,East,83,6.0,10.0,-999,-99.99,,,-99.99,,2013-03-31 18:23:00,
2013-03-31 14:32:00,49.0,32.0,-100.00,ENE,78,6.0,11.0,52,0.00,,,-99.99,,2013-03-31 18:32:00,
2013-03-31 14:42:00,50.0,32.0,-100.00,East,92,4.0,9.0,50,0.00,,,-99.99,,2013-03-31 18:42:00,
2013-03-31 14:52:00,50.0,32.0,-100.00,East,100,4.0,9.0,50,0.00,,,-99.99,,2013-03-31 18:52:00,
2013-03-31 15:03:00,50.0,33.0,-100.00,East,96,4.0,9.0,52,0.00,,,-99.99,,2013-03-31 19:03:00,
2013-03-31 15:12:00,51.0,31.0,-100.00,East,88,5.0,9.0,48,0.00,,,-99.99,,2013-03-31 19:12:00,
2013-03-31 15:22:00,49.0,32.0,-100.00,East,90,6.0,12.0,50,0.00,,,-99.99,,2013-03-31 19:22:00,
2013-03-31 15:33:00,50.0,30.0,-100.00,East,90,5.0,12.0,47,0.00,,,-99.99,,2013-03-31 19:33:00,
2013-03-31 15:43:00,50.0,31.0,-100.00,East,93,6.0,11.0,48,0.00,,,-99.99,,2013-03-31 19:43:00,
2013-03-31 15:53:00,50.0,31.0,-100.00,East,95,4.0,10.0,48,0.00,,,-99.99,,2013-03-31 19:53:00,
2013-03-31 16:03:00,52.0,27.0,-100.00,ESE,110,5.0,14.0,38,0.00,,,-99.99,,2013-03-31 20:03:00,
2013-03-31 16:12:00,52.0,30.0,-100.00,SE,130,9.0,17.0,44,0.00,,,-99.99,,2013-03-31 20:12:00,
2013-03-31 16:23:00,52.0,31.0,-100.00,SE,126,6.0,12.0,44,0.00,,,-99.99,,2013-03-31 20:23:00,
2013-03-31 16:34:00,51.0,32.0,-100.00,SE,124,7.0,14.0,47,0.00,,,-99.99,,2013-03-31 20:34:00,
2013-03-31 16:43:00,51.0,32.0,-100.00,ESE,121,6.0,11.0,48,0.00,,,-99.99,,2013-03-31 20:43:00,
2013-03-31 16:53:00,-999.0,-99.9,-100.00,ESE,120,6.0,12.0,-999,-99.99,,,-99.99,,2013-03-31 20:53:00,
2013-03-31 17:02:00,52.0,32.0,-100.00,ESE,123,6.0,11.0,47,-99.99,,,-99.99,,2013-03-31 21:02:00,
2013-03-31 17:12:00,52.0,32.0,-100.00,ESE,123,6.0,11.0,48,0.00,,,-99.99,,2013-03-31 21:12:00,
2013-03-31 17:22:00,52.0,32.0,-100.00,SE,126,6.0,11.0,47,0.00,,,-99.99,,2013-03-31 21:22:00,
2013-03-31 17:34:00,53.0,32.0,-100.00,ESE,121,4.0,8.0,45,0.00,,,-99.99,,2013-03-31 21:34:00,
2013-03-31 17:43:00,53.0,31.0,-100.00,SE,126,4.0,10.0,42,0.00,,,-99.99,,2013-03-31 21:43:00,
2013-03-31 17:53:00,54.0,26.0,-100.00,SSE,148,10.0,19.0,33,0.00,,,-99.99,,2013-03-31 21:53:00,
2013-03-31 18:03:00,54.0,26.0,-100.00,SSE,151,10.0,19.0,33,0.00,,,-99.99,,2013-03-31 22:03:00,
2013-03-31 18:13:00,54.0,26.0,-100.00,SSE,148,10.0,16.0,33,0.00,,,-99.99,,2013-03-31 22:13:00,
2013-03-31 18:23:00,54.0,25.0,-100.00,SSE,148,9.0,16.0,31,0.00,,,-99.99,,2013-03-31 22:23:00,
2013-03-31 18:34:00,-999.0,-99.9,-100.00,SSE,148,11.0,19.0,-999,-99.99,,,-99.99,,2013-03-31 22:34:00,
2013-03-31 18:43:00,-999.0,-99.9,-100.00,SSE,147,11.0,19.0,-999,-99.99,,,-99.99,,2013-03-31 22:43:00,
2013-03-31 18:53:00,54.0,24.0,-100.00,SSE,148,10.0,19.0,31,0.00,,,-99.99,,2013-03-31 22:53:00,
2013-03-31 19:03:00,53.0,23.0,-100.00,SSE,152,11.0,19.0,31,0.00,,,-99.99,,2013-03-31 23:03:00,
2013-03-31 19:13:00,53.0,24.0,-100.00,SSE,154,10.0,16.0,32,0.00,,,-99.99,,2013-03-31 23:13:00,
2013-03-31 19:22:00,53.0,24.0,-100.00,SSE,154,10.0,18.0,32,0.00,,,-99.99,,2013-03-31 23:22:00,
2013-03-31 19:32:00,52.0,24.0,-100.00,SSE,155,10.0,17.0,34,0.00,,,-99.99,,2013-03-31 23:32:00,
2013-03-31 19:42:00,52.0,26.0,-100.00,SSE,155,9.0,16.0,36,0.00,,,-99.99,,2013-03-31 23:42:00,
2013-03-31 19:53:00,52.0,28.0,-100.00,SSE,155,9.0,19.0,39,0.00,,,-99.99,,2013-03-31 23:53:00,
2013-03-31 20:02:00,51.0,29.0,-100.00,SSE,152,7.0,14.0,42,0.00,,,-99.99,,2013-04-01 00:02:00,
2013-03-31 20:13:00,51.0,30.0,-100.00,SSE,154,9.0,14.0,44,0.00,,,-99.99,,2013-04-01 00:13:00,
2013-03-31 20:22:00,51.0,31.0,-100.00,SSE,157,9.0,13.0,45,0.00,,,-99.99,,2013-04-01 00:22:00,
2013-03-31 20:33:00,-999.0,-99.9,-100.00,SSE,158,7.0,11.0,-999,-99.99,,,-99.99,,2013-04-01 00:33:00,
2013-03-31 20:43:00,-999.0,-99.9,-100.00,South,169,7.0,14.0,-999,-99.99,,,-99.99,,2013-04-01 00:43:00,
2013-03-31 20:52:00,51.0,31.0,-100.00,South,171,7.0,15.0,44,0.00,,,-99.99,,2013-04-01 00:52:00,
2013-03-31 21:03:00,51.0,31.0,-100.00,SSE,165,9.0,17.0,45,0.00,,,-99.99,,2013-04-01 01:03:00,
2013-03-31 21:12:00,51.0,31.0,-100.00,SSE,162,7.0,16.0,46,0.00,,,-99.99,,2013-04-01 01:12:00,
2013-03-31 21:23:00,51.0,32.0,-100.00,SSE,150,9.0,18.0,48,0.00,,,-99.99,,2013-04-01 01:23:00,
2013-03-31 21:32:00,50.0,34.0,-100.00,SSE,154,11.0,17.0,53,0.00,,,-99.99,,2013-04-01 01:32:00,
2013-03-31 21:42:00,49.0,35.0,-100.00,SE,145,11.0,22.0,59,0.03,,,-99.99,,2013-04-01 01:42:00,
2013-03-31 21:52:00,48.0,36.0,-100.00,SSE,147,10.0,17.0,62,0.00,,,-99.99,,2013-04-01 01:52:00,
2013-03-31 22:03:00,48.0,37.0,-100.00,SSE,148,11.0,19.0,64,0.01,,,-99.99,,2013-04-01 02:03:00,
2013-03-31 22:13:00,47.0,38.0,-100.00,SE,143,7.0,12.0,71,0.00,,,-99.99,,2013-04-01 02:13:00,
2013-03-31 22:23:00,47.0,38.0,-100.00,SE,134,4.0,10.0,71,0.00,,,-99.99,,2013-04-01 02:23:00,
2013-03-31 22:33:00,47.0,38.0,-100.00,SE,130,3.0,7.0,71,0.00,,,-99.99,,2013-04-01 02:33:00,
2013-03-31 22:42:00,47.0,38.0,-100.00,ESE,114,2.0,4.0,71,0.00,,,-99.99,,2013-04-01 02:42:00,
2013-03-31 22:52:00,46.0,37.0,-100.00,ESE,114,3.0,7.0,71,0.00,,,-99.99,,2013-04-01 02:52:00,
2013-03-31 23:03:00,46.0,37.0,-100.00,ESE,121,4.0,9.0,70,0.00,,,-99.99,,2013-04-01 03:03:00,
2013-03-31 23:12:00,46.0,36.0,-100.00,SE,127,7.0,14.0,69,0.00,,,-99.99,,2013-04-01 03:12:00,
2013-03-31 23:22:00,46.0,36.0,-100.00,SE,128,7.0,14.0,69,0.00,,,-99.99,,2013-04-01 03:22:00,
2013-03-31 23:34:00,45.0,36.0,-100.00,SE,126,6.0,10.0,69,0.00,,,-99.99,,2013-04-01 03:34:00,
2013-03-31 23:43:00,45.0,35.0,-100.00,ESE,123,4.0,11.0,67,0.00,,,-99.99,,2013-04-01 03:43:00,
2013-03-31 23:53:00,-999.0,-99.9,-100.00,SE,124,6.0,10.0,-999,-99.99,,,-99.99,,2013-04-01 03:53:00,